createdAt,value
2022-09-15T00:00:53.464Z,99850.16
2022-09-15T00:03:21.347Z,99853.28
2022-09-15T00:05:48.271Z,99839.94
2022-09-15T00:08:15.094Z,99848.47
2022-09-15T00:10:53.307Z,99847.97
2022-09-15T00:13:21.186Z,99840.59
2022-09-15T00:15:48.237Z,99847.47
2022-09-15T00:18:14.787Z,99851.56
2022-09-15T00:20:43.132Z,99850.56
2022-09-15T00:23:11.436Z,99857.66
2022-09-15T00:25:44.106Z,99861.25
2022-09-15T00:28:10.389Z,99860.88
2022-09-15T00:30:43.960Z,99869.84
2022-09-15T00:33:11.137Z,99880.03
2022-09-15T00:35:41.969Z,99882.47
2022-09-15T00:38:09.714Z,99882.91
2022-09-15T00:40:52.053Z,99887.50
2022-09-15T00:43:20.939Z,99877.50
2022-09-15T00:45:48.430Z,99875.72
2022-09-15T00:48:18.999Z,99876.94
2022-09-15T00:50:56.949Z,99874.28
2022-09-15T00:53:26.096Z,99880.50
2022-09-15T00:55:52.837Z,99877.78
2022-09-15T00:58:47.357Z,99874.34
2022-09-15T01:01:15.955Z,99876.78
2022-09-15T01:03:42.867Z,99874.28
2022-09-15T01:06:25.415Z,99876.28
2022-09-15T01:08:57.503Z,99875.97
2022-09-15T01:11:24.352Z,99877.66
2022-09-15T01:13:50.738Z,99877.53
2022-09-15T01:19:13.106Z,99874.22
2022-09-15T01:21:58.748Z,99865.50
2022-09-15T01:24:44.047Z,99864.66
2022-09-15T01:27:41.047Z,99871.59
2022-09-15T01:30:09.370Z,99865.50
2022-09-15T01:32:54.226Z,99870.75
2022-09-15T01:35:35.576Z,99865.38
2022-09-15T01:38:11.115Z,99870.50
2022-09-15T01:40:50.176Z,99864.59
2022-09-15T01:43:20.270Z,99868.00
2022-09-15T01:45:49.579Z,99864.34
2022-09-15T01:48:22.701Z,99874.03
2022-09-15T01:50:53.016Z,99872.31
2022-09-15T01:53:22.138Z,99874.16
2022-09-15T01:56:10.217Z,99869.06
2022-09-15T01:58:39.282Z,99875.84
2022-09-15T02:01:11.352Z,99875.84
2022-09-15T02:03:55.560Z,99880.03
2022-09-15T02:06:36.840Z,99873.22
2022-09-15T02:09:13.368Z,99873.91
2022-09-15T02:11:52.810Z,99876.66
2022-09-15T02:14:39.177Z,99879.06
2022-09-15T02:17:05.824Z,99873.91
2022-09-15T02:19:44.890Z,99879.00
2022-09-15T02:22:27.662Z,99873.66
2022-09-15T02:24:59.667Z,99884.09
2022-09-15T02:27:31.534Z,99884.91
2022-09-15T02:30:06.732Z,99890.13
2022-09-15T02:32:36.824Z,99891.13
2022-09-15T02:35:06.531Z,99895.13
2022-09-15T02:37:35.230Z,99890.91
2022-09-15T02:40:02.474Z,99903.22
2022-09-15T02:42:31.442Z,99900.59
2022-09-15T02:44:59.359Z,99898.00
2022-09-15T02:47:28.101Z,99891.28
2022-09-15T02:49:55.431Z,99887.81
2022-09-15T02:52:21.704Z,99898.41
2022-09-15T02:54:48.102Z,99892.25
2022-09-15T02:57:14.471Z,99893.22
2022-09-15T02:59:59.076Z,99895.94
2022-09-15T03:02:25.442Z,99898.47
2022-09-15T03:04:52.336Z,99903.66
2022-09-15T03:07:19.007Z,99897.44
2022-09-15T03:09:46.263Z,99896.59
2022-09-15T03:12:13.092Z,99888.75
2022-09-15T03:14:48.801Z,99895.69
2022-09-15T03:17:15.103Z,99889.53
2022-09-15T03:19:41.388Z,99895.69
2022-09-15T03:22:09.268Z,99896.53
2022-09-15T03:24:36.736Z,99894.84
2022-09-15T03:27:03.868Z,99893.91
2022-09-15T03:29:30.823Z,99898.16
2022-09-15T03:31:57.325Z,99895.59
2022-09-15T03:34:23.647Z,99892.13
2022-09-15T03:36:49.954Z,99899.97
2022-09-15T03:39:16.228Z,99902.34
2022-09-15T03:41:42.524Z,99892.97
2022-09-15T03:44:08.947Z,99892.84
2022-09-15T03:46:35.529Z,99894.97
2022-09-15T03:49:01.819Z,99887.16
2022-09-15T03:51:28.116Z,99892.13
2022-09-15T03:53:55.432Z,99887.13
2022-09-15T03:56:27.594Z,99882.78
2022-09-15T03:58:54.064Z,99883.69
2022-09-15T04:01:20.897Z,99879.66
2022-09-15T04:03:51.087Z,99883.22
2022-09-15T04:06:19.625Z,99879.78
2022-09-15T04:08:45.966Z,99880.03
2022-09-15T04:11:13.764Z,99868.81
2022-09-15T04:13:41.927Z,99871.69
2022-09-15T04:16:11.379Z,99877.63
2022-09-15T04:18:38.305Z,99868.34
2022-09-15T04:21:12.515Z,99871.75
2022-09-15T04:23:40.392Z,99867.63
2022-09-15T04:26:11.675Z,99867.63
2022-09-15T04:28:38.269Z,99872.78
2022-09-15T04:31:13.339Z,99873.44
2022-09-15T04:33:41.565Z,99871.63
2022-09-15T04:36:11.563Z,99879.41
2022-09-15T04:38:38.645Z,99880.38
2022-09-15T04:41:05.641Z,99878.31
2022-09-15T04:43:32.685Z,99870.78
2022-09-15T04:45:59.228Z,99869.91
2022-09-15T04:48:26.296Z,99883.66
2022-09-15T04:50:53.109Z,99881.84
2022-09-15T04:53:19.702Z,99876.63
2022-09-15T04:55:46.013Z,99881.50
2022-09-15T04:58:12.665Z,99873.66
2022-09-15T05:00:43.287Z,99871.25
2022-09-15T05:03:11.240Z,99874.66
2022-09-15T05:05:38.009Z,99873.88
2022-09-15T05:08:04.391Z,99873.19
2022-09-15T05:10:31.206Z,99870.16
2022-09-15T05:12:57.496Z,99873.03
2022-09-15T05:15:24.100Z,99879.09
2022-09-15T05:17:50.466Z,99874.78
2022-09-15T05:20:17.517Z,99873.06
2022-09-15T05:22:44.511Z,99871.97
2022-09-15T05:25:11.258Z,99865.91
2022-09-15T05:27:39.162Z,99872.22
2022-09-15T05:30:34.929Z,99875.63
2022-09-15T05:32:53.715Z,99878.31
2022-09-15T05:35:20.150Z,99878.19
2022-09-15T05:37:46.457Z,99875.38
2022-09-15T05:40:12.871Z,99875.44
2022-09-15T05:42:40.303Z,99879.91
2022-09-15T05:45:07.473Z,99878.25
2022-09-15T05:47:33.785Z,99883.41
2022-09-15T05:50:00.116Z,99880.03
2022-09-15T05:52:26.446Z,99879.91
2022-09-15T05:54:56.952Z,99879.22
2022-09-15T05:57:25.233Z,99871.81
2022-09-15T05:59:51.548Z,99877.78
2022-09-15T06:02:18.090Z,99877.28
2022-09-15T06:04:44.452Z,99871.69
2022-09-15T06:07:10.830Z,99882.91
2022-09-15T06:09:37.898Z,99884.69
2022-09-15T06:12:04.285Z,99890.97
2022-09-15T06:14:30.603Z,99908.81
2022-09-15T06:16:56.909Z,99899.66
2022-09-15T06:19:23.278Z,99894.41
2022-09-15T06:21:49.650Z,99888.22
2022-09-15T06:24:15.996Z,99889.97
2022-09-15T06:26:42.382Z,99890.09
2022-09-15T06:29:11.492Z,99893.44
2022-09-15T06:31:38.473Z,99897.19
2022-09-15T06:34:05.263Z,99897.16
2022-09-15T06:36:32.062Z,99904.16
2022-09-15T06:38:58.973Z,99901.09
2022-09-15T06:41:25.468Z,99903.44
2022-09-15T06:43:52.940Z,99901.19
2022-09-15T06:46:22.432Z,99903.09
2022-09-15T06:48:51.292Z,99898.97
2022-09-15T06:51:20.395Z,99903.31
2022-09-15T06:53:47.078Z,99904.31
2022-09-15T06:56:18.801Z,99905.16
2022-09-15T06:58:46.239Z,99901.63
2022-09-15T07:01:25.180Z,99907.72
2022-09-15T07:03:52.025Z,99914.66
2022-09-15T07:06:19.095Z,99906.22
2022-09-15T07:08:46.559Z,99909.63
2022-09-15T07:11:13.734Z,99900.97
2022-09-15T07:13:40.452Z,99911.84
2022-09-15T07:16:08.908Z,99907.47
2022-09-15T07:18:39.694Z,99906.22
2022-09-15T07:21:12.018Z,99898.56
2022-09-15T07:23:38.321Z,99900.34
2022-09-15T07:26:12.731Z,99895.28
2022-09-15T07:28:40.522Z,99888.41
2022-09-15T07:31:08.633Z,99890.38
2022-09-15T07:33:35.731Z,99890.19
2022-09-15T07:36:03.643Z,99888.06
2022-09-15T07:38:30.304Z,99886.44
2022-09-15T07:41:07.073Z,99889.16
2022-09-15T07:43:33.888Z,99891.88
2022-09-15T07:46:01.341Z,99889.81
2022-09-15T07:48:28.168Z,99881.09
2022-09-15T07:50:54.592Z,99888.41
2022-09-15T07:53:21.236Z,99901.84
2022-09-15T07:55:54.736Z,99893.09
2022-09-15T07:58:21.667Z,99901.59
2022-09-15T08:00:48.934Z,99899.47
2022-09-15T08:03:15.888Z,99899.66
2022-09-15T08:05:45.590Z,99899.84
2022-09-15T08:08:12.175Z,99902.19
2022-09-15T08:10:40.929Z,99900.09
2022-09-15T08:13:07.203Z,99895.69
2022-09-15T08:15:36.305Z,99900.63
2022-09-15T08:18:02.640Z,99904.19
2022-09-15T08:20:29.005Z,99902.72
2022-09-15T08:22:55.319Z,99905.28
2022-09-15T08:25:21.634Z,99911.06
2022-09-15T08:27:47.904Z,99909.91
2022-09-15T08:30:14.225Z,99906.84
2022-09-15T08:32:40.609Z,99904.31
2022-09-15T08:35:08.522Z,99910.66
2022-09-15T08:37:35.089Z,99913.44
2022-09-15T08:40:01.772Z,99910.59
2022-09-15T08:42:30.386Z,99918.63
2022-09-15T08:45:08.105Z,99911.13
2022-09-15T08:47:39.811Z,99920.69
2022-09-15T08:50:22.969Z,99905.88
2022-09-15T08:52:55.492Z,99916.06
2022-09-15T08:55:37.409Z,99907.09
2022-09-15T08:58:05.764Z,99910.34
2022-09-15T09:00:33.327Z,99916.28
2022-09-15T09:03:21.397Z,99905.38
2022-09-15T09:06:02.583Z,99918.81
2022-09-15T09:08:53.300Z,99911.69
2022-09-15T09:11:57.443Z,99922.38
2022-09-15T09:14:44.786Z,99925.16
2022-09-15T09:17:43.510Z,99914.47
2022-09-15T09:20:34.301Z,99916.66
2022-09-15T09:23:03.915Z,99910.91
2022-09-15T09:25:31.318Z,99906.56
2022-09-15T09:27:58.323Z,99899.34
2022-09-15T09:30:27.559Z,99890.09
2022-09-15T09:33:18.225Z,99899.00
2022-09-15T09:35:51.629Z,99900.53
2022-09-15T09:38:22.199Z,99899.00
2022-09-15T09:40:49.621Z,99900.13
2022-09-15T09:43:16.035Z,99902.75
2022-09-15T09:45:42.510Z,99915.94
2022-09-15T09:48:20.342Z,99914.03
2022-09-15T09:50:47.784Z,99917.91
2022-09-15T09:53:33.517Z,99917.84
2022-09-15T09:56:12.385Z,99918.06
2022-09-15T09:58:38.895Z,99925.47
2022-09-15T10:01:19.847Z,99927.50
2022-09-15T10:03:46.731Z,99925.28
2022-09-15T10:06:20.495Z,99935.16
2022-09-15T10:08:59.020Z,99933.66
2022-09-15T10:11:52.668Z,99927.88
2022-09-15T10:14:23.668Z,99926.25
2022-09-15T10:17:01.735Z,99925.72
2022-09-15T10:19:31.343Z,99926.16
2022-09-15T10:21:59.064Z,99918.53
2022-09-15T10:24:34.727Z,99909.13
2022-09-15T10:27:17.017Z,99913.59
2022-09-15T10:29:43.452Z,99910.63
2022-09-15T10:32:25.382Z,99910.31
2022-09-15T10:35:00.676Z,99906.53
2022-09-15T10:37:50.809Z,99897.69
2022-09-15T10:40:26.027Z,99913.16
2022-09-15T10:42:57.622Z,99912.66
2022-09-15T10:45:39.475Z,99908.88
2022-09-15T10:48:33.464Z,99908.66
2022-09-15T10:51:18.876Z,99917.16
2022-09-15T10:54:24.338Z,99915.06
2022-09-15T10:56:58.923Z,99915.34
2022-09-15T11:00:08.927Z,99915.94
2022-09-15T11:03:11.832Z,99919.63
2022-09-15T11:05:38.172Z,99921.84
2022-09-15T11:08:45.927Z,99898.84
2022-09-15T11:11:45.005Z,99903.78
2022-09-15T11:14:23.660Z,99905.19
2022-09-15T11:17:05.512Z,99893.38
2022-09-15T11:19:57.595Z,99899.75
2022-09-15T11:22:48.741Z,99908.41
2022-09-15T11:25:22.795Z,99897.66
2022-09-15T11:27:58.359Z,99913.63
2022-09-15T11:30:29.511Z,99904.25
2022-09-15T11:33:02.024Z,99923.28
2022-09-15T11:35:40.504Z,99920.19
2022-09-15T11:38:28.230Z,99928.44
2022-09-15T11:41:04.932Z,99926.97
2022-09-15T11:43:37.376Z,99938.59
2022-09-15T11:46:12.922Z,99940.56
2022-09-15T11:48:55.672Z,99945.28
2022-09-15T11:51:25.359Z,99948.00
2022-09-15T11:54:09.486Z,99939.44
2022-09-15T11:56:42.543Z,99938.22
2022-09-15T11:59:31.438Z,99934.47
2022-09-15T12:02:11.594Z,99932.50
2022-09-15T12:04:45.942Z,99930.50
2022-09-15T12:07:18.747Z,99925.44
2022-09-15T12:09:45.445Z,99920.72
2022-09-15T12:12:15.730Z,99928.16
2022-09-15T12:14:47.569Z,99921.91
2022-09-15T12:17:37.372Z,99926.34
2022-09-15T12:20:22.954Z,99922.06
2022-09-15T12:23:01.680Z,99923.22
2022-09-15T12:25:35.768Z,99924.28
2022-09-15T12:28:23.854Z,99920.25
2022-09-15T12:31:28.782Z,99915.28
2022-09-15T12:34:16.969Z,99903.25
2022-09-15T12:36:52.794Z,99913.25
2022-09-15T12:39:24.144Z,99908.81
2022-09-15T12:42:00.930Z,99913.25
2022-09-15T12:44:37.920Z,99917.22
2022-09-15T12:47:15.287Z,99910.22
2022-09-15T12:49:44.396Z,99909.66
2022-09-15T12:52:11.964Z,99917.59
2022-09-15T12:54:42.559Z,99934.41
2022-09-15T12:57:30.438Z,99932.72
2022-09-15T13:00:16.306Z,99940.41
2022-09-15T13:02:46.530Z,99932.50
2022-09-15T13:05:14.195Z,99937.59
2022-09-15T13:07:57.843Z,99932.81
2022-09-15T13:10:29.506Z,99939.03
2022-09-15T13:13:22.540Z,99943.25
2022-09-15T13:15:51.819Z,99938.59
2022-09-15T13:18:19.754Z,99934.25
2022-09-15T13:20:53.760Z,99938.25
2022-09-15T13:23:24.965Z,99939.72
2022-09-15T13:25:56.116Z,99939.41
2022-09-15T13:28:23.958Z,99946.28
2022-09-15T13:31:05.182Z,99945.31
2022-09-15T13:40:14.251Z,99958.19
2022-09-15T13:43:11.647Z,99956.53
2022-09-15T13:45:49.919Z,99957.53
2022-09-15T13:48:40.107Z,99952.50
2022-09-15T13:51:22.608Z,99953.06
2022-09-15T13:54:04.163Z,99953.31
2022-09-15T13:56:38.307Z,99951.72
2022-09-15T13:59:13.498Z,99958.97
2022-09-15T14:01:41.931Z,99954.69
2022-09-15T14:04:24.256Z,99953.72
2022-09-15T14:06:57.170Z,99942.72
2022-09-15T14:09:33.112Z,99941.50
2022-09-15T14:12:04.921Z,99937.31
2022-09-15T14:14:31.196Z,99935.84
2022-09-15T14:16:57.642Z,99930.97
2022-09-15T14:19:34.021Z,99936.22
2022-09-15T14:22:33.012Z,99939.34
2022-09-15T14:25:04.973Z,99935.41
2022-09-15T14:27:36.388Z,99941.41
2022-09-15T14:30:07.214Z,99944.44
2022-09-15T14:32:45.795Z,99945.69
2022-09-15T14:35:19.774Z,99948.09
2022-09-15T14:37:54.986Z,99942.47
2022-09-15T14:40:41.726Z,99942.81
2022-09-15T14:43:30.266Z,99948.19
2022-09-15T14:46:09.760Z,99958.41
2022-09-15T14:48:36.106Z,99973.50
2022-09-15T14:51:08.652Z,99992.03
2022-09-15T14:53:38.416Z,99983.31
2022-09-15T14:56:15.555Z,99980.22
2022-09-15T14:58:55.975Z,99968.56
2022-09-15T15:01:31.337Z,99971.50
2022-09-15T15:04:25.469Z,99983.19
2022-09-15T15:07:15.044Z,99966.97
2022-09-15T15:09:46.934Z,99966.19
2022-09-15T15:12:22.240Z,99959.72
2022-09-15T15:14:48.925Z,99963.69
2022-09-15T15:17:54.611Z,99962.44
2022-09-15T15:20:27.183Z,99961.88
2022-09-15T15:23:23.931Z,99956.13
2022-09-15T15:25:51.142Z,99954.66
2022-09-15T15:28:35.636Z,99959.19
2022-09-15T15:31:20.776Z,99953.09
2022-09-15T15:34:05.038Z,99962.44
2022-09-15T15:36:34.296Z,99957.28
2022-09-15T15:39:04.318Z,99956.41
2022-09-15T15:41:35.016Z,99961.88
2022-09-15T15:44:29.343Z,99958.81
2022-09-15T15:46:57.429Z,99963.56
2022-09-15T15:49:33.062Z,99963.00
2022-09-15T15:52:00.512Z,99969.44
2022-09-15T15:54:27.957Z,99968.38
2022-09-15T15:56:54.551Z,99965.56
2022-09-15T15:59:21.187Z,99969.72
2022-09-15T16:01:51.207Z,99978.84
2022-09-15T16:04:17.575Z,99973.78
2022-09-15T16:06:44.797Z,99972.22
2022-09-15T16:09:14.588Z,99966.06
2022-09-15T16:11:42.709Z,99958.06
2022-09-15T16:14:13.268Z,99963.97
2022-09-15T16:16:39.588Z,99958.63
2022-09-15T16:19:06.088Z,99960.97
2022-09-15T16:21:38.562Z,99963.88
2022-09-15T16:24:06.126Z,99961.34
2022-09-15T16:26:34.421Z,99970.91
2022-09-15T16:29:01.300Z,99969.91
2022-09-15T16:31:27.737Z,99989.97
2022-09-15T16:33:54.091Z,99984.56
2022-09-15T16:36:20.439Z,99988.97
2022-09-15T16:38:46.738Z,99989.94
2022-09-15T16:41:25.363Z,99991.47
2022-09-15T16:44:02.446Z,99994.84
2022-09-15T16:46:29.660Z,99988.94
2022-09-15T16:48:56.262Z,99989.66
2022-09-15T16:51:29.755Z,99986.28
2022-09-15T16:53:57.971Z,99983.19
2022-09-15T16:56:24.262Z,99980.06
2022-09-15T16:58:55.944Z,99975.38
2022-09-15T17:01:25.907Z,99983.94
2022-09-15T17:03:52.195Z,99979.84
2022-09-15T17:06:18.879Z,99976.97
2022-09-15T17:08:45.681Z,99982.13
2022-09-15T17:11:16.663Z,99981.22
2022-09-15T17:13:44.466Z,99977.19
2022-09-15T17:16:12.390Z,99975.44
2022-09-15T17:18:38.739Z,99971.25
2022-09-15T17:21:05.142Z,99977.44
2022-09-15T17:23:35.307Z,99974.94
2022-09-15T17:26:04.633Z,99970.06
2022-09-15T17:28:33.724Z,99974.22
2022-09-15T17:31:02.340Z,99979.38
2022-09-15T17:33:31.011Z,99976.13
2022-09-15T17:35:57.881Z,99984.09
2022-09-15T17:38:24.958Z,99982.00
2022-09-15T17:40:52.513Z,99976.53
2022-09-15T17:43:21.709Z,99986.31
2022-09-15T17:45:49.365Z,99994.47
2022-09-15T17:48:16.542Z,99992.06
2022-09-15T17:50:44.962Z,99981.69
2022-09-15T17:53:13.884Z,99984.22
2022-09-15T17:55:41.156Z,99985.84
2022-09-15T17:58:07.909Z,99995.56
2022-09-15T18:00:37.291Z,99993.16
2022-09-15T18:03:10.489Z,99995.22
2022-09-15T18:05:37.242Z,99989.28
2022-09-15T18:08:05.766Z,99992.69
2022-09-15T18:10:34.212Z,99987.13
2022-09-15T18:13:01.601Z,99988.34
2022-09-15T18:15:30.960Z,99994.34
2022-09-15T18:17:59.984Z,99998.91
2022-09-15T18:20:28.805Z,100000.97
2022-09-15T18:22:55.226Z,99998.34
2022-09-15T18:25:33.422Z,99998.47
2022-09-15T18:28:01.281Z,100013.34
2022-09-15T18:30:34.496Z,100007.41
2022-09-15T18:33:00.795Z,100005.84
2022-09-15T18:35:27.177Z,100017.09
2022-09-15T18:37:58.511Z,100011.91
2022-09-15T18:40:26.204Z,100007.59
2022-09-15T18:42:52.634Z,100013.84
2022-09-15T18:45:19.680Z,100014.63
2022-09-15T18:47:50.772Z,100011.91
2022-09-15T18:50:20.170Z,100008.34
2022-09-15T18:52:46.713Z,100014.25
2022-09-15T18:55:15.812Z,100018.22
2022-09-15T18:57:43.092Z,100013.22
2022-09-15T19:00:19.125Z,100013.44
2022-09-15T19:02:46.078Z,100018.59
2022-09-15T19:05:15.479Z,100021.28
2022-09-15T19:07:43.159Z,100031.81
2022-09-15T19:10:13.373Z,100027.84
2022-09-15T19:12:39.951Z,100025.25
2022-09-15T19:15:11.613Z,100032.34
2022-09-15T19:17:39.218Z,100030.41
2022-09-15T19:20:07.362Z,100039.34
2022-09-15T19:22:34.840Z,100034.97
2022-09-15T19:25:01.243Z,100039.34
2022-09-15T19:27:27.876Z,100045.41
2022-09-15T19:29:54.164Z,100042.88
2022-09-15T19:32:21.996Z,100045.41
2022-09-15T19:34:49.171Z,100042.03
2022-09-15T19:37:19.565Z,100038.44
2022-09-15T19:39:47.430Z,100042.09
2022-09-15T19:44:41.932Z,100037.59
2022-09-15T19:47:08.964Z,100042.78
2022-09-15T19:49:35.534Z,100050.66
2022-09-15T19:52:01.820Z,100046.44
2022-09-15T19:54:29.803Z,100043.88
2022-09-15T19:56:56.416Z,100049.91
2022-09-15T19:59:26.275Z,100042.97
2022-09-15T20:01:55.115Z,100046.53
2022-09-15T20:04:21.466Z,100038.06
2022-09-15T20:06:47.753Z,100049.47
2022-09-15T20:09:15.112Z,100043.53
2022-09-15T20:11:41.599Z,100044.44
2022-09-15T20:14:07.990Z,100052.31
2022-09-15T20:16:34.930Z,100057.63
2022-09-15T20:19:03.991Z,100051.56
2022-09-15T20:21:49.299Z,100052.41
2022-09-15T20:24:18.146Z,100054.97
2022-09-15T20:26:44.613Z,100060.09
2022-09-15T20:29:11.089Z,100045.28
2022-09-15T20:31:37.569Z,100056.59
2022-09-15T20:34:04.054Z,100052.19
2022-09-15T20:36:33.427Z,100053.34
2022-09-15T20:39:00.994Z,100056.03
2022-09-15T20:41:28.812Z,100051.59
2022-09-15T20:43:55.496Z,100061.34
2022-09-15T20:46:23.116Z,100058.09
2022-09-15T20:48:51.255Z,100054.75
2022-09-15T20:51:22.693Z,100057.25
2022-09-15T20:53:51.259Z,100064.25
2022-09-15T20:56:21.094Z,100055.63
2022-09-15T20:58:47.794Z,100058.34
2022-09-15T21:01:17.182Z,100050.47
2022-09-15T21:03:45.252Z,100071.47
2022-09-15T21:06:20.771Z,100058.69
2022-09-15T21:08:48.496Z,100067.28
2022-09-15T21:11:16.043Z,100053.38
2022-09-15T21:13:43.592Z,100055.13
2022-09-15T21:16:14.488Z,100066.59
2022-09-15T21:18:42.247Z,100068.28
2022-09-15T21:21:20.739Z,100057.97
2022-09-15T21:23:52.687Z,100060.75
2022-09-15T21:26:21.854Z,100069.44
2022-09-15T21:28:48.648Z,100066.72
2022-09-15T21:31:18.714Z,100064.19
2022-09-15T21:33:46.903Z,100072.00
2022-09-15T21:36:21.234Z,100061.59
2022-09-15T21:38:48.356Z,100066.97
2022-09-15T21:41:17.215Z,100064.47
2022-09-15T21:43:46.392Z,100073.25
2022-09-15T21:46:16.126Z,100064.72
2022-09-15T21:48:44.201Z,100071.69
2022-09-15T21:51:13.023Z,100070.88
2022-09-15T21:53:39.662Z,100079.47
2022-09-15T21:56:11.774Z,100074.34
2022-09-15T21:58:42.940Z,100075.38
2022-09-15T22:01:14.020Z,100073.41
2022-09-15T22:03:42.248Z,100075.16
2022-09-15T22:06:12.676Z,100076.91
2022-09-15T22:08:39.900Z,100076.00
2022-09-15T22:11:07.346Z,100082.91
2022-09-15T22:13:35.697Z,100083.75
2022-09-15T22:16:07.751Z,100081.28
2022-09-15T22:18:38.932Z,100088.28
2022-09-15T22:21:09.568Z,100085.78
2022-09-15T22:23:36.215Z,100089.97
2022-09-15T22:26:04.325Z,100089.19
2022-09-15T22:28:31.223Z,100093.50
2022-09-15T22:31:02.081Z,100090.03
2022-09-15T22:33:28.980Z,100087.34
2022-09-15T22:35:56.789Z,100095.09
2022-09-15T22:38:24.958Z,100094.31
2022-09-15T22:40:51.501Z,100088.22
2022-09-15T22:43:17.862Z,100094.34
2022-09-15T22:45:44.329Z,100093.44
2022-09-15T22:48:10.743Z,100088.22
2022-09-15T22:50:37.118Z,100083.81
2022-09-15T22:53:03.827Z,100091.66
2022-09-15T22:55:31.395Z,100092.41
2022-09-15T22:57:58.510Z,100088.13
2022-09-15T23:00:24.939Z,100082.97
2022-09-15T23:02:51.796Z,100084.59
2022-09-15T23:05:18.211Z,100088.13
2022-09-15T23:07:44.480Z,100084.75
2022-09-15T23:10:10.778Z,100087.34
2022-09-15T23:12:37.095Z,100080.41
2022-09-15T23:15:04.583Z,100082.16
2022-09-15T23:17:31.317Z,100083.91
2022-09-15T23:19:57.613Z,100080.63
2022-09-15T23:22:23.879Z,100076.38
2022-09-15T23:24:50.187Z,100084.28
2022-09-15T23:27:16.486Z,100072.19
2022-09-15T23:29:42.786Z,100075.53
2022-09-15T23:32:09.656Z,100075.72
2022-09-15T23:34:36.047Z,100081.94
2022-09-15T23:37:02.780Z,100070.78
2022-09-15T23:39:29.197Z,100075.16
2022-09-15T23:41:55.475Z,100067.34
2022-09-15T23:44:21.936Z,100080.25
2022-09-15T23:46:48.388Z,100082.88
2022-09-15T23:49:18.595Z,100075.03
2022-09-15T23:51:45.313Z,100067.97
2022-09-15T23:54:11.632Z,100070.59
2022-09-15T23:56:38.228Z,100067.97
2022-09-15T23:59:04.523Z,100062.00
